Peach Glen, Pennsylvania
Current Conditions -  °F | °C
As of 1:53 PM on Thursday 30 Oct 2014 (Local Time) from KTHV Reporting Station
Scattered Clouds Scattered Clouds  
Wind Chill: 53°   Ceiling: Unl
Heat Index: 53°   Visibility: 10mi
Dew Point: 36°   Wind: 8mph
Humidity: 52%   Direction: 310°NW
Pressure: 30.03"   Gusts: NA
Location:  40.02°N, 77.23°W
Report Text: KTHV 301753Z AUTO 31007KT 10SM SCT065 12/02 A3003 RMK AO2 SLP172 T01170022 10139 20044 58010
Loading
Personal Weather Stations






























Interactive Weather Map
Tropical Storm Tracking
New forecast layout! Learn more

10-Day Weather Forecast

Advertisements
Track Severe Weather on mobile